createdAt,value
2019-04-11T00:04:08.382Z,4.6
2019-04-11T00:09:32.544Z,4.2
2019-04-11T00:14:54.517Z,5
2019-04-11T00:20:18.036Z,4.8
2019-04-11T00:25:40.080Z,5.1
2019-04-11T00:31:02.759Z,4.9
2019-04-11T00:36:25.466Z,4.5
2019-04-11T00:41:48.275Z,5.2
2019-04-11T00:47:11.083Z,5
2019-04-11T00:52:33.642Z,5.2
2019-04-11T00:57:57.114Z,4.9
2019-04-11T01:03:20.131Z,5
2019-04-11T01:08:42.159Z,5.1
2019-04-11T01:14:05.656Z,5.1
2019-04-11T01:19:28.961Z,4.9
2019-04-11T01:24:52.048Z,5.2
2019-04-11T01:30:15.737Z,5
2019-04-11T01:35:39.426Z,5.3
2019-04-11T01:41:02.425Z,5.4
2019-04-11T01:46:24.875Z,5
2019-04-11T01:51:47.638Z,5.6
2019-04-11T01:57:10.153Z,5.1
2019-04-11T02:02:32.811Z,5.2
2019-04-11T02:07:55.460Z,4.8
2019-04-11T02:13:19.543Z,5
2019-04-11T02:18:41.549Z,5.2
2019-04-11T02:24:03.994Z,5.2
2019-04-11T02:29:27.688Z,4.9
2019-04-11T02:34:54.307Z,5
2019-04-11T02:40:15.341Z,5
2019-04-11T02:45:50.437Z,5.5
2019-04-11T02:51:02.837Z,5.4
2019-04-11T02:56:25.629Z,5.6
2019-04-11T03:01:48.194Z,5.3
2019-04-11T03:07:10.174Z,5.4
2019-04-11T03:12:33.786Z,5.1
2019-04-11T03:18:01.469Z,5.6
2019-04-11T03:23:21.175Z,6
2019-04-11T03:28:47.308Z,6
2019-04-11T03:39:50.503Z,6.3
2019-04-11T03:45:14.943Z,5.8
2019-04-11T03:50:21.333Z,6.8
2019-04-11T03:55:41.079Z,6.5
2019-04-11T04:01:06.415Z,6.7
2019-04-11T04:06:28.663Z,6.8
2019-04-11T04:11:51.441Z,7.9
2019-04-11T04:17:14.819Z,8.3
2019-04-11T04:22:37.696Z,8.1
2019-04-11T04:28:00.533Z,8.7
2019-04-11T04:33:28.543Z,9.1
2019-04-11T04:38:50.206Z,9.2
2019-04-11T04:44:14.352Z,8.6
2019-04-11T04:49:38.597Z,10.2
2019-04-11T04:55:02.038Z,10
2019-04-11T05:00:25.926Z,9.6
2019-04-11T05:05:48.852Z,9.9
2019-04-11T05:11:11.477Z,10.5
2019-04-11T05:16:35.571Z,10.4
2019-04-11T05:21:57.763Z,10.9
2019-04-11T05:27:20.924Z,11.3
2019-04-11T05:32:43.136Z,11
2019-04-11T05:38:05.807Z,10.9
2019-04-11T05:43:31.724Z,10.4
2019-04-11T05:48:54.942Z,10.9
2019-04-11T05:54:16.383Z,11.3
2019-04-11T05:59:39.055Z,10.4
2019-04-11T06:05:02.699Z,11.3
2019-04-11T06:10:26.128Z,11.3
2019-04-11T06:15:49.246Z,11.1
2019-04-11T06:21:11.700Z,11.2
2019-04-11T06:26:36.565Z,10.9
2019-04-11T06:31:59.243Z,10.9
2019-04-11T06:37:21.878Z,10.6
2019-04-11T06:42:45.496Z,10.6
2019-04-11T06:48:07.427Z,10.8
2019-04-11T06:53:32.091Z,12
2019-04-11T06:58:55.523Z,9.9
2019-04-11T07:04:19.498Z,9.4
2019-04-11T07:09:42.332Z,9.6
2019-04-11T07:15:05.008Z,10.1
2019-04-11T07:20:27.730Z,10
2019-04-11T07:25:50.358Z,9.1
2019-04-11T07:31:14.619Z,9.1
2019-04-11T07:36:38.355Z,8.5
2019-04-11T07:42:01.088Z,8.8
2019-04-11T07:47:26.070Z,8.2
2019-04-11T07:52:47.238Z,8.8
2019-04-11T07:58:09.173Z,8.9
2019-04-11T08:03:32.059Z,8.5
2019-04-11T08:08:55.947Z,8.1
2019-04-11T08:14:20.209Z,8.5
2019-04-11T08:19:42.849Z,8
2019-04-11T08:25:07.158Z,7.9
2019-04-11T08:30:30.854Z,8.6
2019-04-11T08:35:53.940Z,8.4
2019-04-11T08:41:17.368Z,8.5
2019-04-11T08:46:40.111Z,8.5
2019-04-11T08:52:03.514Z,8.6
2019-04-11T08:57:25.609Z,9
2019-04-11T09:02:49.169Z,8.6
2019-04-11T09:08:10.910Z,8.3
2019-04-11T09:13:33.582Z,7.8
2019-04-11T09:18:59.566Z,7.7
2019-04-11T09:24:22.061Z,8
2019-04-11T09:29:44.564Z,8.2
2019-04-11T09:35:08.359Z,8.2
2019-04-11T09:40:31.928Z,8
2019-04-11T09:45:54.397Z,8.1
2019-04-11T09:51:17.797Z,8.2
2019-04-11T09:56:39.751Z,8.7
2019-04-11T10:02:02.496Z,8.3
2019-04-11T10:07:25.774Z,8.4
2019-04-11T10:12:48.598Z,8.6
2019-04-11T10:18:21.862Z,8.3
2019-04-11T10:23:34.960Z,8.7
2019-04-11T10:28:58.006Z,8.9
2019-04-11T10:34:20.253Z,9.4
2019-04-11T10:39:43.786Z,8.9
2019-04-11T10:45:06.743Z,9.4
2019-04-11T10:50:29.324Z,9.6
2019-04-11T10:55:52.026Z,9.9
2019-04-11T11:01:15.817Z,9.5
2019-04-11T11:06:38.373Z,9.6
2019-04-11T11:12:01.200Z,9.7
2019-04-11T11:17:45.770Z,9.8
2019-04-11T11:22:48.192Z,9.9
2019-04-11T11:28:10.180Z,9.4
2019-04-11T11:33:32.691Z,9.5
2019-04-11T11:38:55.433Z,9.4
2019-04-11T11:44:19.198Z,9.2
2019-04-11T11:49:51.624Z,11
2019-04-11T11:55:06.141Z,10.1
2019-04-11T12:00:29.247Z,9.3
2019-04-11T12:05:53.653Z,9.8
2019-04-11T12:11:15.729Z,10.3
2019-04-11T12:16:39.611Z,10.3
2019-04-11T12:22:02.337Z,11.5
2019-04-11T12:27:26.702Z,12.1
2019-04-11T12:32:49.007Z,14.2
2019-04-11T12:38:11.662Z,14.2
2019-04-11T12:43:34.295Z,12.9
2019-04-11T12:48:57.052Z,13.6
2019-04-11T12:54:19.705Z,12
2019-04-11T12:59:42.900Z,11.2
2019-04-11T13:05:05.566Z,10.3
2019-04-11T13:10:28.337Z,11.1
2019-04-11T13:15:51.400Z,10.5
2019-04-11T13:21:14.271Z,9
2019-04-11T13:26:37.125Z,9.9
2019-04-11T13:31:59.875Z,9
2019-04-11T13:37:22.657Z,9.5
2019-04-11T13:42:45.330Z,9.7
2019-04-11T13:48:08.006Z,8.6
2019-04-11T13:53:31.675Z,8.3
2019-04-11T13:58:54.381Z,8.6
2019-04-11T14:04:17.957Z,8.4
2019-04-11T14:09:40.693Z,8.1
2019-04-11T14:15:05.902Z,8.1
2019-04-11T14:20:29.369Z,8.7
2019-04-11T14:25:50.975Z,9
2019-04-11T14:31:13.797Z,8.8
2019-04-11T14:36:36.527Z,8.9
2019-04-11T14:41:59.829Z,8.6
2019-04-11T14:47:22.278Z,8.8
2019-04-11T14:52:46.655Z,8
2019-04-11T14:58:09.433Z,8.2
2019-04-11T15:03:33.113Z,8.3
2019-04-11T15:08:55.960Z,8.3
2019-04-11T15:14:18.938Z,8.5
2019-04-11T15:19:41.875Z,8.1
2019-04-11T15:25:05.700Z,7
2019-04-11T15:30:28.422Z,7.1
2019-04-11T15:35:51.335Z,7.5
2019-04-11T15:41:13.952Z,7.2
2019-04-11T15:46:36.920Z,7.1
2019-04-11T15:51:59.596Z,7.1
2019-04-11T15:57:22.453Z,7.2
2019-04-11T16:02:45.101Z,7.2
2019-04-11T16:08:09.165Z,6.2
2019-04-11T16:13:32.287Z,6.6
2019-04-11T16:18:55.271Z,8.9
2019-04-11T16:24:18.146Z,8
2019-04-11T16:29:43.031Z,6.5
2019-04-11T16:35:05.782Z,6
2019-04-11T16:40:28.662Z,6.2
2019-04-11T16:45:54.566Z,5.3
2019-04-11T16:51:15.054Z,5.5
2019-04-11T16:56:37.835Z,5.3
2019-04-11T17:02:00.557Z,5
2019-04-11T17:07:23.779Z,5.7
2019-04-11T17:12:47.118Z,5.4
2019-04-11T17:18:09.951Z,5.2
2019-04-11T17:23:33.543Z,6.1
2019-04-11T17:28:56.234Z,5
2019-04-11T17:34:19.207Z,4.8
2019-04-11T17:39:42.061Z,4.7
2019-04-11T17:45:04.708Z,4.9
2019-04-11T17:50:28.180Z,4.9
2019-04-11T17:55:51.950Z,4.9
2019-04-11T18:01:14.614Z,4.8
2019-04-11T18:06:37.757Z,4.8
2019-04-11T18:12:00.438Z,4.5
2019-04-11T18:17:23.075Z,4.4
2019-04-11T18:22:47.535Z,4.8
2019-04-11T18:28:10.906Z,5
2019-04-11T18:33:33.613Z,4.1
2019-04-11T18:38:55.408Z,4.5
2019-04-11T18:44:18.798Z,3.9
2019-04-11T18:49:41.155Z,3.7
2019-04-11T18:55:03.967Z,4.2
2019-04-11T19:00:26.916Z,4.2
2019-04-11T19:05:49.601Z,4.5
2019-04-11T19:11:15.259Z,4.2
2019-04-11T19:16:36.571Z,5
2019-04-11T19:21:59.234Z,4.4
2019-04-11T19:27:22.697Z,4.6
2019-04-11T19:32:45.578Z,4.8
2019-04-11T19:38:11.975Z,4.5
2019-04-11T19:43:32.281Z,4.7
2019-04-11T19:48:56.096Z,5.1
2019-04-11T19:54:18.642Z,4.3
2019-04-11T19:59:41.431Z,4.8
2019-04-11T20:05:04.205Z,5.7
2019-04-11T20:10:30.529Z,5.1
2019-04-11T20:15:50.804Z,5.5
2019-04-11T20:21:13.835Z,6.3
2019-04-11T20:26:37.031Z,5.2
2019-04-11T20:31:59.756Z,6.7
2019-04-11T20:37:24.463Z,6.4
2019-04-11T20:42:46.128Z,6.8
2019-04-11T20:48:08.919Z,6.8
2019-04-11T20:53:31.760Z,5.9
2019-04-11T20:58:54.476Z,5.8
2019-04-11T21:04:17.166Z,5.4
2019-04-11T21:09:40.307Z,5.9
2019-04-11T21:15:03.034Z,6.7
2019-04-11T21:20:25.777Z,8.5
2019-04-11T21:25:48.527Z,8.9
2019-04-11T21:31:11.198Z,8.1
2019-04-11T21:36:34.905Z,4.8
2019-04-11T21:41:57.651Z,5
2019-04-11T21:47:20.323Z,5.8
2019-04-11T21:52:43.622Z,4.7
2019-04-11T21:58:06.850Z,4.5
2019-04-11T22:03:29.501Z,5.2
2019-04-11T22:08:52.917Z,4.5
2019-04-11T22:14:15.587Z,4
2019-04-11T22:19:38.298Z,3.9
2019-04-11T22:25:01.016Z,4.1
2019-04-11T22:30:25.288Z,3.9
2019-04-11T22:35:47.662Z,4.2
2019-04-11T22:41:10.797Z,3.8
2019-04-11T22:46:37.303Z,4
2019-04-11T22:51:57.346Z,3.7
2019-04-11T22:57:20.156Z,4
2019-04-11T23:02:44.890Z,3.6
2019-04-11T23:08:06.977Z,3.7
2019-04-11T23:13:29.813Z,3.3
2019-04-11T23:18:52.603Z,3.4
2019-04-11T23:24:15.301Z,3.1
2019-04-11T23:29:37.931Z,3.1
2019-04-11T23:35:00.574Z,2.9
2019-04-11T23:40:23.283Z,2.9
2019-04-11T23:45:45.982Z,2.7
2019-04-11T23:51:08.751Z,2.7
2019-04-11T23:56:31.409Z,2.6
